createdAt,value
2022-08-17T00:00:34.672Z,64.40
2022-08-17T00:03:06.425Z,64.34
2022-08-17T00:05:38.850Z,64.73
2022-08-17T00:08:06.552Z,65.00
2022-08-17T00:10:34.740Z,64.98
2022-08-17T00:13:06.885Z,65.02
2022-08-17T00:15:34.592Z,65.02
2022-08-17T00:18:02.225Z,65.14
2022-08-17T00:20:32.094Z,64.84
2022-08-17T00:23:10.081Z,65.20
2022-08-17T00:25:38.371Z,65.13
2022-08-17T00:28:06.381Z,65.13
2022-08-17T00:30:51.235Z,64.74
2022-08-17T00:33:24.714Z,64.62
2022-08-17T00:35:53.669Z,64.91
2022-08-17T00:38:23.934Z,64.56
2022-08-17T00:40:55.962Z,65.45
2022-08-17T00:43:32.547Z,65.74
2022-08-17T00:46:02.572Z,66.55
2022-08-17T00:48:31.098Z,67.27
2022-08-17T00:51:08.163Z,66.97
2022-08-17T00:53:41.819Z,67.55
2022-08-17T00:56:14.271Z,67.34
2022-08-17T00:58:42.325Z,66.98
2022-08-17T01:01:12.577Z,67.13
2022-08-17T01:03:49.741Z,67.27
2022-08-17T01:06:17.606Z,67.11
2022-08-17T01:08:46.717Z,67.08
2022-08-17T01:11:14.344Z,67.06
2022-08-17T01:13:44.298Z,66.98
2022-08-17T01:16:17.255Z,66.84
2022-08-17T01:18:46.739Z,67.72
2022-08-17T01:21:21.872Z,67.94
2022-08-17T01:23:50.893Z,67.97
2022-08-17T01:26:19.611Z,68.45
2022-08-17T01:28:54.743Z,68.83
2022-08-17T01:31:26.248Z,69.01
2022-08-17T01:33:53.987Z,68.78
2022-08-17T01:36:22.375Z,68.95
2022-08-17T01:38:51.410Z,68.84
2022-08-17T01:41:22.961Z,68.85
2022-08-17T01:43:54.971Z,68.56
2022-08-17T01:46:26.880Z,68.56
2022-08-17T01:48:55.556Z,68.72
2022-08-17T01:51:23.508Z,68.41
2022-08-17T01:53:58.382Z,68.25
2022-08-17T01:56:28.943Z,68.52
2022-08-17T01:58:57.138Z,68.26
2022-08-17T02:01:28.993Z,67.65
2022-08-17T02:04:00.943Z,68.12
2022-08-17T02:06:44.826Z,67.87
2022-08-17T02:09:23.230Z,67.69
2022-08-17T02:11:54.136Z,67.86
2022-08-17T02:14:22.015Z,67.58
2022-08-17T02:16:50.225Z,67.67
2022-08-17T02:19:18.404Z,67.83
2022-08-17T02:21:49.108Z,67.37
2022-08-17T02:25:00.288Z,66.92
2022-08-17T02:27:08.913Z,67.17
2022-08-17T02:29:37.127Z,67.04
2022-08-17T02:32:05.445Z,66.55
2022-08-17T02:34:33.712Z,67.47
2022-08-17T02:37:01.315Z,68.33
2022-08-17T02:39:30.359Z,68.50
2022-08-17T02:42:02.599Z,69.20
2022-08-17T02:44:38.717Z,69.18
2022-08-17T02:47:08.222Z,68.94
2022-08-17T02:49:35.970Z,69.00
2022-08-17T02:52:05.284Z,69.88
2022-08-17T02:54:41.386Z,69.60
2022-08-17T02:57:09.997Z,69.46
2022-08-17T02:59:37.680Z,69.04
2022-08-17T03:02:05.483Z,68.95
2022-08-17T03:04:35.501Z,69.23
2022-08-17T03:07:04.103Z,69.17
2022-08-17T03:09:31.858Z,68.74
2022-08-17T03:12:07.078Z,68.80
2022-08-17T03:14:41.292Z,69.51
2022-08-17T03:17:10.897Z,70.00
2022-08-17T03:19:43.496Z,71.23
2022-08-17T03:22:36.128Z,71.48
2022-08-17T03:24:59.607Z,71.51
2022-08-17T03:27:28.600Z,70.71
2022-08-17T03:29:56.244Z,70.82
2022-08-17T03:32:23.844Z,71.17
2022-08-17T03:34:51.492Z,70.69
2022-08-17T03:37:19.129Z,70.23
2022-08-17T03:39:47.237Z,70.66
2022-08-17T03:42:32.460Z,70.02
2022-08-17T03:45:03.298Z,70.49
2022-08-17T03:47:48.757Z,70.36
2022-08-17T03:50:35.351Z,70.19
2022-08-17T03:53:24.686Z,69.55
2022-08-17T03:56:10.030Z,69.64
2022-08-17T03:58:37.841Z,70.20
2022-08-17T04:01:07.727Z,69.80
2022-08-17T04:03:35.961Z,70.49
2022-08-17T04:06:03.650Z,70.53
2022-08-17T04:08:31.563Z,69.78
2022-08-17T04:11:01.455Z,69.46
2022-08-17T04:13:29.177Z,69.68
2022-08-17T04:15:57.240Z,69.64
2022-08-17T04:18:26.481Z,70.20
2022-08-17T04:20:54.752Z,70.60
2022-08-17T04:23:28.213Z,70.20
2022-08-17T04:25:55.801Z,70.01
2022-08-17T04:28:23.457Z,70.64
2022-08-17T04:30:51.148Z,69.98
2022-08-17T04:33:21.796Z,70.13
2022-08-17T04:35:53.924Z,70.93
2022-08-17T04:38:26.239Z,70.97
2022-08-17T04:41:12.454Z,71.68
2022-08-17T04:43:42.093Z,71.73
2022-08-17T04:46:12.756Z,72.06
2022-08-17T04:48:44.006Z,72.22
2022-08-17T04:51:16.219Z,73.15
2022-08-17T04:53:45.674Z,72.07
2022-08-17T04:56:21.559Z,71.51
2022-08-17T04:58:51.483Z,71.38
2022-08-17T05:01:23.794Z,71.57
2022-08-17T05:03:52.287Z,71.44
2022-08-17T05:06:21.654Z,71.11
2022-08-17T05:08:49.500Z,70.52
2022-08-17T05:11:17.128Z,70.03
2022-08-17T05:13:44.795Z,69.86
2022-08-17T05:16:12.914Z,69.96
2022-08-17T05:18:40.560Z,69.92
2022-08-17T05:21:08.989Z,69.60
2022-08-17T05:23:42.651Z,70.18
2022-08-17T05:26:20.425Z,69.65
2022-08-17T05:28:57.092Z,69.69
2022-08-17T05:31:27.985Z,69.81
2022-08-17T05:33:55.742Z,69.50
2022-08-17T05:36:41.708Z,69.33
2022-08-17T05:39:16.563Z,68.58
2022-08-17T05:41:46.523Z,68.09
2022-08-17T05:44:14.124Z,67.77
2022-08-17T05:46:48.547Z,67.56
2022-08-17T05:49:18.775Z,67.17
2022-08-17T05:52:11.207Z,66.40
2022-08-17T05:54:58.884Z,66.43
2022-08-17T05:57:47.417Z,66.13
2022-08-17T06:00:26.287Z,65.81
2022-08-17T06:03:25.050Z,65.93
2022-08-17T06:06:18.076Z,65.93
2022-08-17T06:08:51.933Z,65.52
2022-08-17T06:11:29.723Z,65.39
2022-08-17T06:14:10.204Z,65.05
2022-08-17T06:16:41.802Z,65.52
2022-08-17T06:19:14.543Z,65.87
2022-08-17T06:21:45.967Z,65.55
2022-08-17T06:24:25.431Z,65.49
2022-08-17T06:26:56.257Z,64.70
2022-08-17T06:29:37.205Z,64.20
2022-08-17T06:32:06.644Z,63.65
2022-08-17T06:34:34.825Z,63.55
2022-08-17T06:37:15.428Z,63.43
2022-08-17T06:39:50.668Z,63.30
2022-08-17T06:43:04.105Z,62.89
2022-08-17T06:45:22.696Z,63.02
2022-08-17T06:47:57.370Z,62.92
2022-08-17T06:50:30.687Z,62.58
2022-08-17T06:53:00.550Z,62.80
2022-08-17T06:55:37.843Z,63.15
2022-08-17T06:58:15.902Z,63.11
2022-08-17T07:00:48.030Z,62.55
2022-08-17T07:03:26.360Z,62.11
2022-08-17T07:05:57.938Z,62.21
2022-08-17T07:08:35.382Z,61.96
2022-08-17T07:11:07.705Z,62.73
2022-08-17T07:13:51.057Z,62.89
2022-08-17T07:16:22.910Z,62.84
2022-08-17T07:18:53.187Z,62.31
2022-08-17T07:21:39.384Z,62.42
2022-08-17T07:24:29.748Z,61.96
2022-08-17T07:27:13.698Z,61.72
2022-08-17T07:29:47.656Z,61.28
2022-08-17T07:32:19.417Z,60.99
2022-08-17T07:35:11.728Z,61.57
2022-08-17T07:37:41.542Z,60.94
2022-08-17T07:40:22.605Z,60.56
2022-08-17T07:43:05.178Z,60.59
2022-08-17T07:45:54.069Z,59.77
2022-08-17T07:48:25.909Z,59.41
2022-08-17T07:50:53.949Z,60.33
2022-08-17T07:53:24.060Z,61.32
2022-08-17T07:55:53.465Z,60.51
2022-08-17T07:58:24.019Z,60.91
2022-08-17T08:01:08.688Z,60.46
2022-08-17T08:03:43.201Z,59.33
2022-08-17T08:06:20.666Z,59.54
2022-08-17T08:08:54.845Z,57.91
2022-08-17T08:11:34.434Z,58.16
2022-08-17T08:14:28.596Z,58.28
2022-08-17T08:17:00.132Z,59.50
2022-08-17T08:19:29.238Z,59.87
2022-08-17T08:22:03.392Z,58.55
2022-08-17T08:24:50.150Z,58.30
2022-08-17T08:27:30.539Z,58.71
2022-08-17T08:30:05.295Z,59.30
2022-08-17T08:32:54.312Z,60.23
2022-08-17T08:35:30.898Z,59.21
2022-08-17T08:38:07.744Z,59.35
2022-08-17T08:40:52.218Z,58.61
2022-08-17T08:43:28.185Z,60.88
2022-08-17T08:46:05.741Z,61.48
2022-08-17T08:49:10.138Z,60.90
2022-08-17T08:51:51.645Z,57.40
2022-08-17T08:54:33.321Z,58.32
2022-08-17T08:57:32.927Z,58.21
2022-08-17T09:00:12.722Z,58.74
2022-08-17T09:03:04.609Z,58.96
2022-08-17T09:05:53.354Z,59.45
2022-08-17T09:08:31.689Z,58.18
2022-08-17T09:11:05.970Z,58.48
2022-08-17T09:13:44.734Z,57.69
2022-08-17T09:16:17.282Z,58.61
2022-08-17T09:19:01.392Z,58.20
2022-08-17T09:21:43.066Z,58.36
2022-08-17T09:24:21.487Z,58.85
2022-08-17T09:26:53.880Z,58.02
2022-08-17T09:29:25.408Z,60.14
2022-08-17T09:31:57.229Z,60.46
2022-08-17T09:34:33.371Z,59.86
2022-08-17T09:37:16.322Z,60.96
2022-08-17T09:39:51.165Z,61.52
2022-08-17T09:42:24.803Z,63.02
2022-08-17T09:44:58.927Z,60.29
2022-08-17T09:47:32.524Z,61.07
2022-08-17T09:50:06.937Z,62.31
2022-08-17T09:52:36.488Z,62.60
2022-08-17T09:55:06.490Z,61.61
2022-08-17T09:57:47.908Z,61.29
2022-08-17T10:00:23.633Z,59.33
2022-08-17T10:03:08.279Z,61.21
2022-08-17T10:05:43.140Z,61.78
2022-08-17T10:08:25.434Z,63.28
2022-08-17T10:11:12.511Z,64.18
2022-08-17T10:13:47.150Z,64.37
2022-08-17T10:16:28.348Z,65.72
2022-08-17T10:19:05.938Z,66.13
2022-08-17T10:22:01.252Z,66.68
2022-08-17T10:25:23.627Z,67.64
2022-08-17T10:27:55.071Z,67.44
2022-08-17T10:30:25.869Z,67.51
2022-08-17T10:32:56.302Z,66.41
2022-08-17T10:35:35.317Z,65.87
2022-08-17T10:38:19.508Z,64.84
2022-08-17T10:40:58.800Z,62.75
2022-08-17T10:44:37.251Z,61.65
2022-08-17T10:46:52.249Z,58.98
2022-08-17T10:49:38.366Z,59.88
2022-08-17T10:52:49.883Z,56.31
2022-08-17T10:55:20.229Z,56.59
2022-08-17T10:57:49.455Z,58.57
2022-08-17T11:00:57.617Z,58.08
2022-08-17T11:03:27.583Z,57.58
2022-08-17T11:06:10.915Z,58.14
2022-08-17T11:09:20.764Z,56.76
2022-08-17T11:12:20.872Z,56.61
2022-08-17T11:15:04.895Z,56.85
2022-08-17T11:18:04.442Z,56.93
2022-08-17T11:20:56.194Z,56.29
2022-08-17T11:23:50.213Z,55.57
2022-08-17T11:26:27.401Z,56.35
2022-08-17T11:28:59.963Z,56.99
2022-08-17T11:31:39.291Z,56.31
2022-08-17T11:34:15.053Z,55.68
2022-08-17T11:37:02.467Z,55.59
2022-08-17T11:39:50.658Z,54.29
2022-08-17T11:42:31.102Z,54.01
2022-08-17T11:45:00.962Z,53.56
2022-08-17T11:48:16.378Z,53.10
2022-08-17T11:51:08.343Z,52.32
2022-08-17T11:56:59.090Z,50.44
2022-08-17T11:59:55.857Z,49.90
2022-08-17T12:02:35.064Z,49.76
2022-08-17T12:05:22.871Z,49.30
2022-08-17T12:07:53.508Z,49.64
2022-08-17T12:10:30.550Z,50.38
2022-08-17T12:12:59.817Z,50.23
2022-08-17T12:15:35.473Z,50.03
2022-08-17T12:18:03.113Z,49.84
2022-08-17T12:20:34.536Z,49.68
2022-08-17T12:23:13.331Z,48.20
2022-08-17T12:25:49.213Z,47.30
2022-08-17T12:28:27.483Z,45.38
2022-08-17T12:31:00.249Z,45.09
2022-08-17T12:33:28.965Z,45.30
2022-08-17T12:36:00.509Z,45.50
2022-08-17T12:38:32.342Z,44.61
2022-08-17T12:41:20.661Z,44.67
2022-08-17T12:43:56.751Z,43.84
2022-08-17T12:46:25.799Z,43.11
2022-08-17T12:48:58.848Z,42.17
2022-08-17T12:51:28.865Z,41.45
2022-08-17T12:53:56.671Z,40.95
2022-08-17T12:56:24.609Z,41.52
2022-08-17T12:58:55.452Z,40.81
2022-08-17T13:01:27.017Z,41.39
2022-08-17T13:03:59.614Z,40.47
2022-08-17T13:06:30.198Z,38.36
2022-08-17T13:08:57.915Z,37.21
2022-08-17T13:11:25.860Z,35.43
2022-08-17T13:13:55.953Z,34.65
2022-08-17T13:16:27.331Z,33.10
2022-08-17T13:19:05.158Z,33.95
2022-08-17T13:21:34.177Z,34.83
2022-08-17T13:24:05.816Z,34.50
2022-08-17T13:26:36.427Z,33.79
2022-08-17T13:29:07.557Z,32.29
2022-08-17T13:31:51.901Z,33.81
2022-08-17T13:34:38.694Z,31.27
2022-08-17T13:37:30.053Z,30.56
2022-08-17T13:40:00.630Z,28.83
2022-08-17T13:42:34.067Z,27.36
2022-08-17T13:45:51.673Z,24.20
2022-08-17T13:48:31.963Z,23.19
2022-08-17T13:51:23.823Z,23.00
2022-08-17T13:53:59.170Z,23.94
2022-08-17T13:56:38.642Z,24.78
2022-08-17T13:59:12.192Z,25.16
2022-08-17T14:01:42.796Z,23.87
2022-08-17T14:04:15.215Z,23.15
2022-08-17T14:06:52.173Z,21.04
2022-08-17T14:09:22.632Z,20.40
2022-08-17T14:11:51.933Z,20.05
2022-08-17T14:14:19.803Z,21.38
2022-08-17T14:16:47.493Z,22.20
2022-08-17T14:19:16.464Z,23.16
2022-08-17T14:21:47.373Z,24.03
2022-08-17T14:24:22.244Z,23.14
2022-08-17T14:26:52.206Z,21.76
2022-08-17T14:29:20.555Z,20.94
2022-08-17T14:31:53.397Z,19.16
2022-08-17T14:34:24.535Z,18.18
2022-08-17T14:36:52.639Z,17.36
2022-08-17T14:39:20.727Z,16.83
2022-08-17T14:41:48.465Z,16.53
2022-08-17T14:44:16.169Z,16.25
2022-08-17T14:46:45.363Z,15.59
2022-08-17T14:49:15.545Z,15.09
2022-08-17T14:51:44.789Z,15.43
2022-08-17T14:54:29.407Z,15.89
2022-08-17T14:57:22.839Z,16.75
2022-08-17T14:59:54.759Z,18.30
2022-08-17T15:02:29.977Z,19.47
2022-08-17T15:05:02.776Z,19.52
2022-08-17T15:07:31.834Z,21.18
2022-08-17T15:10:01.523Z,20.43
2022-08-17T15:12:34.308Z,20.33
2022-08-17T15:15:04.771Z,21.31
2022-08-17T15:17:44.578Z,22.01
2022-08-17T15:20:15.638Z,22.12
2022-08-17T15:22:46.032Z,22.45
2022-08-17T15:25:15.073Z,23.60
2022-08-17T15:27:42.928Z,22.92
2022-08-17T15:30:11.891Z,22.69
2022-08-17T15:32:50.632Z,23.15
2022-08-17T15:35:19.913Z,23.33
2022-08-17T15:37:57.864Z,24.11
2022-08-17T15:40:25.959Z,24.18
2022-08-17T15:42:53.627Z,24.21
2022-08-17T15:45:26.873Z,24.72
2022-08-17T15:47:54.537Z,25.29
2022-08-17T15:50:22.378Z,25.08
2022-08-17T15:52:57.971Z,24.77
2022-08-17T15:55:26.944Z,24.61
2022-08-17T15:57:54.541Z,24.73
2022-08-17T16:00:23.854Z,25.24
2022-08-17T16:03:46.051Z,25.50
2022-08-17T16:05:40.682Z,26.30
2022-08-17T16:08:10.935Z,27.85
2022-08-17T16:10:38.917Z,26.47
2022-08-17T16:13:17.435Z,26.67
2022-08-17T16:15:51.064Z,27.13
2022-08-17T16:18:26.358Z,26.82
2022-08-17T16:20:54.878Z,29.02
2022-08-17T16:23:24.307Z,30.98
2022-08-17T16:25:53.894Z,32.09
2022-08-17T16:28:35.812Z,32.66
2022-08-17T16:31:05.773Z,31.31
2022-08-17T16:33:36.585Z,33.45
2022-08-17T16:36:04.828Z,34.42
2022-08-17T16:38:34.045Z,34.22
2022-08-17T16:41:01.767Z,34.40
2022-08-17T16:43:29.910Z,34.65
2022-08-17T16:45:57.625Z,34.65
2022-08-17T16:48:25.189Z,36.55
2022-08-17T16:51:02.889Z,36.58
2022-08-17T16:53:31.641Z,37.95
2022-08-17T16:56:00.638Z,38.82
2022-08-17T16:58:28.399Z,39.64
2022-08-17T17:00:59.331Z,40.63
2022-08-17T17:03:29.916Z,41.01
2022-08-17T17:06:07.672Z,41.27
2022-08-17T17:08:43.631Z,42.02
2022-08-17T17:11:17.913Z,42.48
2022-08-17T17:13:50.926Z,42.58
2022-08-17T17:16:21.641Z,42.87
2022-08-17T17:19:02.677Z,43.36
2022-08-17T17:21:38.120Z,43.66
2022-08-17T17:24:10.969Z,44.71
2022-08-17T17:26:51.285Z,45.19
2022-08-17T17:29:29.353Z,46.04
2022-08-17T17:32:21.355Z,46.32
2022-08-17T17:34:54.355Z,46.13
2022-08-17T17:37:28.245Z,46.15
2022-08-17T17:40:00.880Z,45.92
2022-08-17T17:42:32.638Z,46.43
2022-08-17T17:45:08.382Z,46.92
2022-08-17T17:47:37.249Z,47.48
2022-08-17T17:50:07.819Z,47.35
2022-08-17T17:52:47.322Z,47.52
2022-08-17T17:55:24.969Z,47.05
2022-08-17T17:58:03.603Z,47.62
2022-08-17T18:00:37.870Z,47.24
2022-08-17T18:03:26.895Z,47.67
2022-08-17T18:06:15.022Z,48.01
2022-08-17T18:09:03.036Z,48.62
2022-08-17T18:11:51.811Z,48.99
2022-08-17T18:14:31.613Z,49.13
2022-08-17T18:17:01.246Z,49.06
2022-08-17T18:19:31.418Z,49.39
2022-08-17T18:22:06.771Z,49.29
2022-08-17T18:24:37.890Z,49.15
2022-08-17T18:27:18.590Z,50.22
2022-08-17T18:29:48.659Z,50.19
2022-08-17T18:32:26.434Z,50.06
2022-08-17T18:34:56.157Z,50.76
2022-08-17T18:37:37.446Z,50.53
2022-08-17T18:40:29.252Z,51.15
2022-08-17T18:43:03.130Z,51.82
2022-08-17T18:45:41.805Z,51.65
2022-08-17T18:48:21.043Z,51.48
2022-08-17T18:50:48.991Z,51.57
2022-08-17T18:53:35.903Z,52.03
2022-08-17T18:56:27.113Z,53.33
2022-08-17T18:59:11.954Z,53.16
2022-08-17T19:01:52.661Z,53.25
2022-08-17T19:04:34.651Z,53.59
2022-08-17T19:07:12.752Z,53.61
2022-08-17T19:09:45.016Z,53.66
2022-08-17T19:12:27.144Z,54.05
2022-08-17T19:14:57.757Z,53.88
2022-08-17T19:17:35.241Z,53.93
2022-08-17T19:20:10.411Z,54.41
2022-08-17T19:22:52.106Z,54.78
2022-08-17T19:25:25.673Z,55.26
2022-08-17T19:27:58.550Z,54.57
2022-08-17T19:30:27.694Z,54.86
2022-08-17T19:32:58.363Z,55.03
2022-08-17T19:35:34.869Z,54.88
2022-08-17T19:38:13.136Z,54.72
2022-08-17T19:40:55.188Z,54.74
2022-08-17T19:43:37.837Z,55.34
2022-08-17T19:46:15.633Z,55.71
2022-08-17T19:48:52.056Z,56.54
2022-08-17T19:51:30.728Z,56.96
2022-08-17T19:54:06.206Z,56.33
2022-08-17T19:56:45.050Z,56.40
2022-08-17T19:59:21.206Z,57.17
2022-08-17T20:01:53.787Z,58.10
2022-08-17T20:04:36.530Z,58.10
2022-08-17T20:07:07.916Z,57.62
2022-08-17T20:09:38.424Z,58.12
2022-08-17T20:12:10.343Z,57.90
2022-08-17T20:14:53.629Z,58.46
2022-08-17T20:17:25.965Z,59.23
2022-08-17T20:20:04.538Z,59.47
2022-08-17T20:22:51.996Z,60.21
2022-08-17T20:25:29.927Z,59.60
2022-08-17T20:28:06.213Z,60.38
2022-08-17T20:30:38.297Z,59.78
2022-08-17T20:33:08.709Z,60.57
2022-08-17T20:36:02.980Z,60.55
2022-08-17T20:38:43.713Z,60.14
2022-08-17T20:41:16.771Z,60.61
2022-08-17T20:43:51.307Z,60.13
2022-08-17T20:46:35.448Z,60.90
2022-08-17T20:49:19.927Z,61.67
2022-08-17T20:52:01.786Z,62.27
2022-08-17T20:54:44.549Z,62.50
2022-08-17T20:57:46.293Z,62.02
2022-08-17T21:00:40.334Z,62.61
2022-08-17T21:03:50.242Z,62.56
2022-08-17T21:06:23.130Z,62.31
2022-08-17T21:08:57.802Z,62.55
2022-08-17T21:12:04.147Z,62.21
2022-08-17T21:14:58.533Z,62.12
2022-08-17T21:17:43.902Z,62.24
2022-08-17T21:20:25.647Z,62.42
2022-08-17T21:23:09.753Z,61.90
2022-08-17T21:25:57.078Z,62.24
2022-08-17T21:28:37.140Z,62.66
2022-08-17T21:31:34.214Z,62.44
2022-08-17T21:34:29.522Z,62.17
2022-08-17T21:37:31.516Z,62.35
2022-08-17T21:40:02.261Z,62.14
2022-08-17T21:42:33.305Z,62.33
2022-08-17T21:45:10.833Z,62.36
2022-08-17T21:47:48.629Z,62.30
2022-08-17T21:50:20.321Z,62.70
2022-08-17T21:52:48.659Z,62.15
2022-08-17T21:55:23.322Z,62.62
2022-08-17T21:57:52.757Z,61.55
2022-08-17T22:00:33.811Z,61.56
2022-08-17T22:03:04.178Z,62.04
2022-08-17T22:05:34.945Z,61.39
2022-08-17T22:08:08.665Z,60.68
2022-08-17T22:10:46.207Z,60.03
2022-08-17T22:13:22.028Z,57.97
2022-08-17T22:16:28.088Z,58.11
2022-08-17T22:18:57.834Z,57.14
2022-08-17T22:21:26.212Z,56.91
2022-08-17T22:24:06.176Z,57.48
2022-08-17T22:27:00.739Z,56.20
2022-08-17T22:29:57.558Z,56.86
2022-08-17T22:32:47.619Z,56.52
2022-08-17T22:35:43.047Z,56.73
2022-08-17T22:38:33.225Z,56.47
2022-08-17T22:41:25.376Z,56.88
2022-08-17T22:43:57.281Z,56.84
2022-08-17T22:46:26.661Z,57.34
2022-08-17T22:48:57.851Z,57.98
2022-08-17T22:51:29.521Z,57.74
2022-08-17T22:54:18.057Z,58.11
2022-08-17T22:57:18.743Z,58.45
2022-08-17T22:59:49.768Z,58.42
2022-08-17T23:02:22.673Z,58.73
2022-08-17T23:04:53.340Z,58.84
2022-08-17T23:07:22.203Z,58.94
2022-08-17T23:09:51.906Z,59.25
2022-08-17T23:12:26.186Z,59.43
2022-08-17T23:15:00.459Z,59.60
2022-08-17T23:17:33.926Z,59.92
2022-08-17T23:20:05.858Z,60.18
2022-08-17T23:22:34.068Z,59.94
2022-08-17T23:25:01.692Z,60.90
2022-08-17T23:27:29.588Z,62.17
2022-08-17T23:29:57.236Z,61.78
2022-08-17T23:32:26.212Z,64.37
2022-08-17T23:34:55.141Z,64.77
2022-08-17T23:37:22.761Z,64.68
2022-08-17T23:39:50.380Z,64.44
2022-08-17T23:42:21.943Z,65.23
2022-08-17T23:44:49.999Z,66.73
2022-08-17T23:47:17.863Z,66.26
2022-08-17T23:49:45.704Z,66.66
2022-08-17T23:52:16.750Z,67.54
2022-08-17T23:54:46.745Z,67.80
2022-08-17T23:57:17.288Z,67.99
2022-08-17T23:59:45.671Z,69.31
